GMMB

Ben Slimane Airport

Ben Slimane, Morocco
METAR GMMB 190500Z AUTO 15004KT //// R32/P2000N ////// 10/10 Q1026 NOSIG
Observed Flight Rules
Dec-19 @ 05:00 UTC (31 minutes ago)
Wind Visibility
150° at 4 knots 1,996 meters
Temperatures Readings
Current 10°C / 50°F
Dewpoint 10°C / 50°F
Humidity 100%
Altimeter 30.3" Hg
Pressure 1026 hPa
Elevation 191
METAR GMMB 190500Z AUTO 15004KT //// R32/P2000N ////// 10/10 Q1026 NOSIG
Observed Flight Rules
Dec-19 @ 05:00 UTC
(31 minutes ago)
Wind Visibility
150° at 4 knots 1,996 meters
Temperature Dewpoint
10°C / 50°F 10°C / 50°F
Humidity Altimeter Pressure
100% 30.3" Hg 1026 hPa